createdAt,value
2019-01-23T00:00:38.546Z,976.18
2019-01-23T00:01:38.535Z,976.14
2019-01-23T00:02:38.521Z,976.14
2019-01-23T00:03:38.517Z,976.11
2019-01-23T00:04:38.495Z,976.1
2019-01-23T00:05:38.481Z,976.06
2019-01-23T00:06:38.469Z,976.11
2019-01-23T00:07:38.467Z,976.06
2019-01-23T00:08:38.443Z,976.06
2019-01-23T00:09:38.433Z,976.1
2019-01-23T00:10:38.420Z,976.08
2019-01-23T00:11:38.408Z,976.07
2019-01-23T00:12:38.392Z,976.05
2019-01-23T00:13:38.390Z,975.97
2019-01-23T00:14:38.370Z,975.99
2019-01-23T00:15:38.356Z,975.93
2019-01-23T00:16:38.346Z,975.93
2019-01-23T00:17:38.333Z,975.91
2019-01-23T00:18:38.321Z,975.92
2019-01-23T00:19:38.308Z,975.89
2019-01-23T00:20:38.308Z,975.86
2019-01-23T00:21:38.289Z,975.85
2019-01-23T00:22:38.271Z,975.88
2019-01-23T00:23:38.259Z,975.87
2019-01-23T00:24:38.247Z,975.85
2019-01-23T00:25:38.242Z,975.82
2019-01-23T00:26:38.222Z,975.82
2019-01-23T00:27:38.207Z,975.76
2019-01-23T00:28:42.290Z,975.8
2019-01-23T00:29:38.186Z,975.81
2019-01-23T00:30:38.173Z,975.74
2019-01-23T00:31:38.160Z,975.73
2019-01-23T00:32:38.150Z,975.73
2019-01-23T00:33:38.149Z,975.69
2019-01-23T00:34:38.121Z,975.66
2019-01-23T00:35:38.107Z,975.63
2019-01-23T00:36:38.105Z,975.64
2019-01-23T00:37:38.102Z,975.66
2019-01-23T00:38:38.072Z,975.6
2019-01-23T00:39:38.058Z,975.6
2019-01-23T00:40:38.050Z,975.61
2019-01-23T00:41:38.044Z,975.58
2019-01-23T00:42:38.020Z,975.55
2019-01-23T00:43:38.016Z,975.56
2019-01-23T00:44:37.999Z,975.56
2019-01-23T00:45:37.985Z,975.57
2019-01-23T00:46:37.970Z,975.53
2019-01-23T00:47:37.961Z,975.52
2019-01-23T00:48:37.962Z,975.5
2019-01-23T00:49:37.934Z,975.46
2019-01-23T00:50:37.919Z,975.46
2019-01-23T00:51:37.908Z,975.46
2019-01-23T00:52:37.898Z,975.43
2019-01-23T00:53:37.890Z,975.45
2019-01-23T00:54:37.869Z,975.45
2019-01-23T00:55:37.859Z,975.42
2019-01-23T00:56:37.845Z,975.4
2019-01-23T00:57:37.829Z,975.39
2019-01-23T00:58:37.818Z,975.4
2019-01-23T00:59:37.806Z,975.37
2019-01-23T01:00:37.793Z,975.36
2019-01-23T01:01:37.787Z,975.36
2019-01-23T01:02:37.769Z,975.38
2019-01-23T01:03:37.756Z,975.38
2019-01-23T01:04:37.741Z,975.4
2019-01-23T01:05:37.728Z,975.35
2019-01-23T01:06:37.717Z,975.38
2019-01-23T01:07:37.706Z,975.35
2019-01-23T01:08:37.691Z,975.34
2019-01-23T01:09:37.679Z,975.31
2019-01-23T01:10:37.675Z,975.31
2019-01-23T01:11:37.660Z,975.29
2019-01-23T01:12:37.641Z,975.3
2019-01-23T01:13:37.626Z,975.31
2019-01-23T01:14:37.618Z,975.28
2019-01-23T01:15:37.608Z,975.31
2019-01-23T01:16:37.592Z,975.29
2019-01-23T01:17:37.575Z,975.24
2019-01-23T01:18:37.564Z,975.31
2019-01-23T01:19:37.547Z,975.24
2019-01-23T01:20:37.537Z,975.25
2019-01-23T01:21:37.524Z,975.23
2019-01-23T01:22:37.514Z,975.21
2019-01-23T01:23:37.498Z,975.2
2019-01-23T01:24:37.491Z,975.14
2019-01-23T01:25:37.475Z,975.16
2019-01-23T01:26:37.462Z,975.15
2019-01-23T01:27:37.456Z,975.1
2019-01-23T01:28:37.436Z,975.12
2019-01-23T01:29:37.422Z,975.09
2019-01-23T01:30:37.407Z,975.11
2019-01-23T01:31:37.396Z,975.07
2019-01-23T01:32:37.395Z,975.08
2019-01-23T01:33:37.372Z,975.09
2019-01-23T01:34:37.359Z,975.03
2019-01-23T01:35:37.350Z,975.03
2019-01-23T01:36:37.335Z,975.05
2019-01-23T01:37:37.316Z,975.01
2019-01-23T01:38:37.306Z,975
2019-01-23T01:39:38.102Z,974.99
2019-01-23T01:40:37.280Z,974.96
2019-01-23T01:41:37.268Z,974.96
2019-01-23T01:42:37.258Z,974.93
2019-01-23T01:43:37.241Z,974.92
2019-01-23T01:44:37.226Z,974.95
2019-01-23T01:45:37.222Z,974.92
2019-01-23T01:46:37.200Z,974.91
2019-01-23T01:47:37.195Z,974.92
2019-01-23T01:48:37.180Z,974.9
2019-01-23T01:49:37.169Z,974.89
2019-01-23T01:50:37.150Z,974.9
2019-01-23T01:51:37.158Z,974.87
2019-01-23T01:52:37.135Z,974.83
2019-01-23T01:53:37.109Z,974.87
2019-01-23T01:54:37.095Z,974.86
2019-01-23T01:55:37.084Z,974.87
2019-01-23T01:56:37.071Z,974.83
2019-01-23T01:57:37.058Z,974.82
2019-01-23T01:58:37.047Z,974.8
2019-01-23T01:59:37.032Z,974.79
2019-01-23T02:00:37.018Z,974.85
2019-01-23T02:01:37.007Z,974.76
2019-01-23T02:02:36.993Z,974.76
2019-01-23T02:03:36.991Z,974.76
2019-01-23T02:04:36.971Z,974.77
2019-01-23T02:05:36.958Z,974.75
2019-01-23T02:06:36.950Z,974.74
2019-01-23T02:07:36.950Z,974.73
2019-01-23T02:08:36.922Z,974.75
2019-01-23T02:09:36.917Z,974.74
2019-01-23T02:10:36.894Z,974.7
2019-01-23T02:11:36.878Z,974.69
2019-01-23T02:12:36.863Z,974.68
2019-01-23T02:13:36.854Z,974.67
2019-01-23T02:14:36.840Z,974.68
2019-01-23T02:15:36.826Z,974.69
2019-01-23T02:16:36.813Z,974.67
2019-01-23T02:17:36.799Z,974.67
2019-01-23T02:18:36.786Z,974.65
2019-01-23T02:19:36.772Z,974.64
2019-01-23T02:20:36.757Z,974.62
2019-01-23T02:21:36.745Z,974.6
2019-01-23T02:22:36.731Z,974.56
2019-01-23T02:23:36.725Z,974.58
2019-01-23T02:24:36.707Z,974.52
2019-01-23T02:25:36.692Z,974.53
2019-01-23T02:26:36.681Z,974.51
2019-01-23T02:27:36.662Z,974.52
2019-01-23T02:28:36.668Z,974.52
2019-01-23T02:29:36.641Z,974.5
2019-01-23T02:30:36.627Z,974.49
2019-01-23T02:31:36.620Z,974.49
2019-01-23T02:32:36.600Z,974.46
2019-01-23T02:33:36.591Z,974.45
2019-01-23T02:34:36.570Z,974.41
2019-01-23T02:35:36.566Z,974.43
2019-01-23T02:36:36.547Z,974.39
2019-01-23T02:37:36.535Z,974.39
2019-01-23T02:38:36.523Z,974.34
2019-01-23T02:39:36.505Z,974.32
2019-01-23T02:40:36.494Z,974.29
2019-01-23T02:41:36.480Z,974.26
2019-01-23T02:42:36.464Z,974.19
2019-01-23T02:43:36.451Z,974.21
2019-01-23T02:44:36.439Z,974.17
2019-01-23T02:45:36.426Z,974.17
2019-01-23T02:46:36.423Z,974.15
2019-01-23T02:47:36.398Z,974.18
2019-01-23T02:48:36.383Z,974.16
2019-01-23T02:49:36.376Z,974.09
2019-01-23T02:50:36.364Z,974.09
2019-01-23T02:51:36.345Z,974.12
2019-01-23T02:52:36.333Z,974.09
2019-01-23T02:53:36.323Z,974.08
2019-01-23T02:54:36.304Z,974.07
2019-01-23T02:55:36.291Z,974.06
2019-01-23T02:56:36.274Z,974.05
2019-01-23T02:57:36.266Z,974.05
2019-01-23T02:58:36.268Z,974.05
2019-01-23T02:59:36.244Z,973.99
2019-01-23T03:00:36.219Z,973.99
2019-01-23T03:01:36.206Z,974.01
2019-01-23T03:02:36.197Z,973.99
2019-01-23T03:03:36.179Z,973.97
2019-01-23T03:04:36.164Z,973.94
2019-01-23T03:05:36.153Z,973.96
2019-01-23T03:06:36.138Z,973.89
2019-01-23T03:07:36.124Z,973.84
2019-01-23T03:08:36.110Z,973.85
2019-01-23T03:09:36.102Z,973.85
2019-01-23T03:10:36.084Z,973.84
2019-01-23T03:11:36.077Z,973.82
2019-01-23T03:12:36.052Z,973.79
2019-01-23T03:13:36.046Z,973.79
2019-01-23T03:14:36.031Z,973.78
2019-01-23T03:15:36.014Z,973.77
2019-01-23T03:16:36.000Z,973.74
2019-01-23T03:17:35.981Z,973.72
2019-01-23T03:18:35.967Z,973.74
2019-01-23T03:19:35.978Z,973.73
2019-01-23T03:20:35.939Z,973.73
2019-01-23T03:21:35.924Z,973.71
2019-01-23T03:22:35.910Z,973.66
2019-01-23T03:23:35.895Z,973.65
2019-01-23T03:24:35.889Z,973.66
2019-01-23T03:25:35.870Z,973.61
2019-01-23T03:26:35.853Z,973.59
2019-01-23T03:27:35.840Z,973.6
2019-01-23T03:28:35.824Z,973.64
2019-01-23T03:29:35.808Z,973.67
2019-01-23T03:30:35.799Z,973.61
2019-01-23T03:31:35.829Z,973.63
2019-01-23T03:32:35.773Z,973.58
2019-01-23T03:33:35.751Z,973.62
2019-01-23T03:34:35.739Z,973.66
2019-01-23T03:35:35.723Z,973.61
2019-01-23T03:36:35.710Z,973.61
2019-01-23T03:37:35.694Z,973.66
2019-01-23T03:38:35.683Z,973.62
2019-01-23T03:39:35.666Z,973.64
2019-01-23T03:40:35.648Z,973.59
2019-01-23T03:41:35.635Z,973.66
2019-01-23T03:42:35.619Z,973.62
2019-01-23T03:43:35.605Z,973.63
2019-01-23T03:44:35.591Z,973.6
2019-01-23T03:45:35.577Z,973.6
2019-01-23T03:46:35.559Z,973.61
2019-01-23T03:47:35.549Z,973.56
2019-01-23T03:48:35.534Z,973.57
2019-01-23T03:49:35.520Z,973.58
2019-01-23T03:50:35.501Z,973.5
2019-01-23T03:51:35.491Z,973.57
2019-01-23T03:52:35.474Z,973.55
2019-01-23T03:53:35.472Z,973.51
2019-01-23T03:54:35.442Z,973.55
2019-01-23T03:55:35.431Z,973.5
2019-01-23T03:56:35.415Z,973.5
2019-01-23T03:57:35.411Z,973.48
2019-01-23T03:58:35.390Z,973.47
2019-01-23T03:59:35.369Z,973.45
2019-01-23T04:00:35.363Z,973.48
2019-01-23T04:01:35.341Z,973.48
2019-01-23T04:02:35.324Z,973.47
2019-01-23T04:03:35.310Z,973.45
2019-01-23T04:04:35.296Z,973.45
2019-01-23T04:05:35.280Z,973.42
2019-01-23T04:06:35.266Z,973.38
2019-01-23T04:07:35.261Z,973.37
2019-01-23T04:08:35.240Z,973.35
2019-01-23T04:09:35.228Z,973.36
2019-01-23T04:10:35.239Z,973.34
2019-01-23T04:11:35.237Z,973.33
2019-01-23T04:12:35.208Z,973.33
2019-01-23T04:13:35.164Z,973.35
2019-01-23T04:14:35.148Z,973.38
2019-01-23T04:15:35.135Z,973.34
2019-01-23T04:16:35.118Z,973.36
2019-01-23T04:17:35.105Z,973.33
2019-01-23T04:18:35.088Z,973.33
2019-01-23T04:19:35.077Z,973.31
2019-01-23T04:20:35.060Z,973.3
2019-01-23T04:21:35.045Z,973.32
2019-01-23T04:22:35.042Z,973.33
2019-01-23T04:23:35.021Z,973.29
2019-01-23T04:24:35.002Z,973.29
2019-01-23T04:25:34.983Z,973.29
2019-01-23T04:26:34.976Z,973.3
2019-01-23T04:27:34.957Z,973.24
2019-01-23T04:28:34.937Z,973.25
2019-01-23T04:29:39.440Z,973.22
2019-01-23T04:30:34.908Z,973.21
2019-01-23T04:31:34.894Z,973.23
2019-01-23T04:32:34.879Z,973.18
2019-01-23T04:33:34.865Z,973.18
2019-01-23T04:34:34.848Z,973.18
2019-01-23T04:35:34.837Z,973.14
2019-01-23T04:36:34.819Z,973.16
2019-01-23T04:37:34.820Z,973.16
2019-01-23T04:38:34.789Z,973.14
2019-01-23T04:39:34.773Z,973.14
2019-01-23T04:40:34.760Z,973.14
2019-01-23T04:41:34.748Z,973.14
2019-01-23T04:42:34.737Z,973.08
2019-01-23T04:43:34.713Z,973.07
2019-01-23T04:44:34.701Z,973.06
2019-01-23T04:45:34.694Z,973.05
2019-01-23T04:46:34.683Z,973.05
2019-01-23T04:47:34.653Z,973.04
2019-01-23T04:48:34.642Z,973.01
2019-01-23T04:49:34.904Z,972.99
2019-01-23T04:50:34.607Z,972.97
2019-01-23T04:51:34.593Z,972.97
2019-01-23T04:52:34.592Z,972.92
2019-01-23T04:53:34.562Z,972.92
2019-01-23T04:54:34.547Z,972.92
2019-01-23T04:55:34.544Z,972.9
2019-01-23T04:56:34.519Z,972.87
2019-01-23T04:57:34.504Z,972.86
2019-01-23T04:58:34.491Z,972.87
2019-01-23T04:59:34.470Z,972.84
2019-01-23T05:00:34.465Z,972.86
2019-01-23T05:01:34.443Z,972.86
2019-01-23T05:02:34.429Z,972.82
2019-01-23T05:03:34.422Z,972.84
2019-01-23T05:04:34.395Z,972.8
2019-01-23T05:05:34.381Z,972.8
2019-01-23T05:06:34.373Z,972.76
2019-01-23T05:07:34.352Z,972.77
2019-01-23T05:08:34.337Z,972.73
2019-01-23T05:09:34.335Z,972.77
2019-01-23T05:10:34.311Z,972.75
2019-01-23T05:11:34.300Z,972.73
2019-01-23T05:12:34.274Z,972.78
2019-01-23T05:13:34.263Z,972.74
2019-01-23T05:14:34.251Z,972.73
2019-01-23T05:15:34.258Z,972.76
2019-01-23T05:16:34.217Z,972.83
2019-01-23T05:17:34.201Z,972.79
2019-01-23T05:18:34.183Z,972.75
2019-01-23T05:19:34.180Z,972.75
2019-01-23T05:20:34.153Z,972.77
2019-01-23T05:21:34.141Z,972.8
2019-01-23T05:22:34.172Z,972.77
2019-01-23T05:23:34.109Z,972.81
2019-01-23T05:24:34.096Z,972.78
2019-01-23T05:25:34.084Z,972.84
2019-01-23T05:26:34.766Z,972.78
2019-01-23T05:27:34.051Z,972.81
2019-01-23T05:28:34.034Z,972.78
2019-01-23T05:29:34.022Z,972.78
2019-01-23T05:30:34.005Z,972.75
2019-01-23T05:31:33.987Z,972.79
2019-01-23T05:32:33.973Z,972.74
2019-01-23T05:33:33.957Z,972.73
2019-01-23T05:34:33.944Z,972.7
2019-01-23T05:35:33.927Z,972.76
2019-01-23T05:36:33.911Z,972.67
2019-01-23T05:37:33.902Z,972.69
2019-01-23T05:38:33.884Z,972.67
2019-01-23T05:39:33.866Z,972.65
2019-01-23T05:40:33.850Z,972.63
2019-01-23T05:41:33.843Z,972.66
2019-01-23T05:42:33.824Z,972.62
2019-01-23T05:43:33.820Z,972.6
2019-01-23T05:44:33.788Z,972.61
2019-01-23T05:45:33.774Z,972.63
2019-01-23T05:46:33.765Z,972.6
2019-01-23T05:47:33.744Z,972.58
2019-01-23T05:48:33.729Z,972.59
2019-01-23T05:49:33.712Z,972.61
2019-01-23T05:50:33.699Z,972.63
2019-01-23T05:51:33.682Z,972.53
2019-01-23T05:52:33.667Z,972.55
2019-01-23T05:53:33.657Z,972.58
2019-01-23T05:54:33.637Z,972.58
2019-01-23T05:55:33.621Z,972.58
2019-01-23T05:56:33.618Z,972.62
2019-01-23T05:57:33.589Z,972.63
2019-01-23T05:58:33.579Z,972.6
2019-01-23T05:59:33.566Z,972.63
2019-01-23T06:00:33.553Z,972.62
2019-01-23T06:01:33.533Z,972.59
2019-01-23T06:02:33.517Z,972.61
2019-01-23T06:03:33.509Z,972.59
2019-01-23T06:04:33.484Z,972.58
2019-01-23T06:05:33.471Z,972.58
2019-01-23T06:06:33.454Z,972.6
2019-01-23T06:07:33.439Z,972.6
2019-01-23T06:08:33.425Z,972.61
2019-01-23T06:09:33.415Z,972.63
2019-01-23T06:10:33.393Z,972.65
2019-01-23T06:11:33.376Z,972.58
2019-01-23T06:12:33.365Z,972.62
2019-01-23T06:13:33.350Z,972.6
2019-01-23T06:14:33.331Z,972.62
2019-01-23T06:15:33.316Z,972.64
2019-01-23T06:16:33.300Z,972.59
2019-01-23T06:17:33.287Z,972.57
2019-01-23T06:18:33.270Z,972.57
2019-01-23T06:19:33.255Z,972.54
2019-01-23T06:20:33.241Z,972.56
2019-01-23T06:21:33.223Z,972.54
2019-01-23T06:22:33.212Z,972.54
2019-01-23T06:23:33.198Z,972.52
2019-01-23T06:24:33.177Z,972.53
2019-01-23T06:25:33.165Z,972.52
2019-01-23T06:26:33.149Z,972.54
2019-01-23T06:27:33.138Z,972.54
2019-01-23T06:28:33.117Z,972.53
2019-01-23T06:29:33.110Z,972.52
2019-01-23T06:30:33.086Z,972.57
2019-01-23T06:31:33.072Z,972.56
2019-01-23T06:32:33.058Z,972.58
2019-01-23T06:33:33.046Z,972.56
2019-01-23T06:34:33.032Z,972.52
2019-01-23T06:35:33.011Z,972.49
2019-01-23T06:36:32.995Z,972.54
2019-01-23T06:37:32.982Z,972.49
2019-01-23T06:38:32.973Z,972.5
2019-01-23T06:39:32.965Z,972.52
2019-01-23T06:40:32.933Z,972.51
2019-01-23T06:41:32.929Z,972.55
2019-01-23T06:42:32.903Z,972.53
2019-01-23T06:43:32.888Z,972.49
2019-01-23T06:44:32.872Z,972.51
2019-01-23T06:45:32.856Z,972.49
2019-01-23T06:46:32.842Z,972.51
2019-01-23T06:47:32.828Z,972.44
2019-01-23T06:48:32.810Z,972.5
2019-01-23T06:49:32.806Z,972.48
2019-01-23T06:50:32.788Z,972.47
2019-01-23T06:51:32.769Z,972.44
2019-01-23T06:52:32.750Z,972.42
2019-01-23T06:53:32.734Z,972.45
2019-01-23T06:54:32.719Z,972.41
2019-01-23T06:55:32.702Z,972.41
2019-01-23T06:56:32.687Z,972.41
2019-01-23T06:57:32.674Z,972.38
2019-01-23T06:58:32.657Z,972.4
2019-01-23T06:59:32.643Z,972.36
2019-01-23T07:00:32.629Z,972.4
2019-01-23T07:01:32.615Z,972.36
2019-01-23T07:02:32.597Z,972.39
2019-01-23T07:03:32.582Z,972.35
2019-01-23T07:04:32.579Z,972.39
2019-01-23T07:05:32.559Z,972.38
2019-01-23T07:06:32.540Z,972.4
2019-01-23T07:07:32.524Z,972.39
2019-01-23T07:08:32.512Z,972.42
2019-01-23T07:09:32.489Z,972.37
2019-01-23T07:10:32.475Z,972.4
2019-01-23T07:11:32.462Z,972.38
2019-01-23T07:12:32.452Z,972.39
2019-01-23T07:13:32.432Z,972.37
2019-01-23T07:14:32.428Z,972.36
2019-01-23T07:15:32.402Z,972.36
2019-01-23T07:16:32.382Z,972.37
2019-01-23T07:17:32.374Z,972.37
2019-01-23T07:18:32.356Z,972.35
2019-01-23T07:19:32.336Z,972.41
2019-01-23T07:20:32.320Z,972.34
2019-01-23T07:21:32.325Z,972.37
2019-01-23T07:22:32.299Z,972.34
2019-01-23T07:23:32.278Z,972.35
2019-01-23T07:24:32.260Z,972.36
2019-01-23T07:25:32.249Z,972.37
2019-01-23T07:26:32.229Z,972.41
2019-01-23T07:27:32.212Z,972.34
2019-01-23T07:28:32.204Z,972.36
2019-01-23T07:29:32.186Z,972.41
2019-01-23T07:30:32.167Z,972.43
2019-01-23T07:31:32.164Z,972.41
2019-01-23T07:32:32.141Z,972.4
2019-01-23T07:33:32.127Z,972.43
2019-01-23T07:34:32.106Z,972.43
2019-01-23T07:35:32.095Z,972.35
2019-01-23T07:36:32.083Z,972.39
2019-01-23T07:37:32.063Z,972.33
2019-01-23T07:38:32.048Z,972.34
2019-01-23T07:39:32.038Z,972.33
2019-01-23T07:40:32.016Z,972.36
2019-01-23T07:41:32.002Z,972.3
2019-01-23T07:42:31.988Z,972.37
2019-01-23T07:43:31.973Z,972.33
2019-01-23T07:44:31.960Z,972.34
2019-01-23T07:45:31.942Z,972.35
2019-01-23T07:46:31.928Z,972.34
2019-01-23T07:47:31.915Z,972.32
2019-01-23T07:48:31.897Z,972.34
2019-01-23T07:49:31.885Z,972.32
2019-01-23T07:50:31.880Z,972.35
2019-01-23T07:51:31.855Z,972.33
2019-01-23T07:52:31.847Z,972.32
2019-01-23T07:53:31.824Z,972.33
2019-01-23T07:54:31.820Z,972.36
2019-01-23T07:55:31.795Z,972.34
2019-01-23T07:56:31.779Z,972.29
2019-01-23T07:57:31.764Z,972.34
2019-01-23T07:58:31.751Z,972.31
2019-01-23T07:59:31.737Z,972.27
2019-01-23T08:00:31.834Z,972.27
2019-01-23T08:01:31.786Z,972.31
2019-01-23T08:02:31.693Z,972.28
2019-01-23T08:03:31.673Z,972.28
2019-01-23T08:04:31.673Z,972.28
2019-01-23T08:05:31.649Z,972.28
2019-01-23T08:06:31.637Z,972.24
2019-01-23T08:07:31.631Z,972.24
2019-01-23T08:08:31.614Z,972.22
2019-01-23T08:09:31.589Z,972.24
2019-01-23T08:10:31.586Z,972.27
2019-01-23T08:11:31.564Z,972.17
2019-01-23T08:12:31.546Z,972.2
2019-01-23T08:13:31.534Z,972.17
2019-01-23T08:14:31.523Z,972.22
2019-01-23T08:15:31.511Z,972.19
2019-01-23T08:16:31.490Z,972.16
2019-01-23T08:17:32.796Z,972.18
2019-01-23T08:18:31.462Z,972.17
2019-01-23T08:19:31.446Z,972.2
2019-01-23T08:20:31.432Z,972.15
2019-01-23T08:21:31.419Z,972.16
2019-01-23T08:22:31.403Z,972.18
2019-01-23T08:23:31.390Z,972.14
2019-01-23T08:24:31.387Z,972.15
2019-01-23T08:25:31.362Z,972.16
2019-01-23T08:26:31.357Z,972.2
2019-01-23T08:27:31.333Z,972.22
2019-01-23T08:28:31.321Z,972.16
2019-01-23T08:29:31.304Z,972.16
2019-01-23T08:30:38.321Z,972.2
2019-01-23T08:31:31.277Z,972.18
2019-01-23T08:32:31.266Z,972.17
2019-01-23T08:33:31.253Z,972.18
2019-01-23T08:34:31.242Z,972.09
2019-01-23T08:35:31.226Z,972.15
2019-01-23T08:36:31.211Z,972.11
2019-01-23T08:37:31.212Z,972.11
2019-01-23T08:38:31.191Z,972.16
2019-01-23T08:39:31.184Z,972.16
2019-01-23T08:40:31.155Z,972.16
2019-01-23T08:41:31.143Z,972.16
2019-01-23T08:42:31.131Z,972.17
2019-01-23T08:43:31.115Z,972.16
2019-01-23T08:44:31.099Z,972.15
2019-01-23T08:45:31.085Z,972.14
2019-01-23T08:46:31.075Z,972.11
2019-01-23T08:47:31.059Z,972.13
2019-01-23T08:48:31.049Z,972.1
2019-01-23T08:49:31.038Z,972.13
2019-01-23T08:50:31.020Z,972.09
2019-01-23T08:51:31.005Z,972.08
2019-01-23T08:52:30.999Z,972.06
2019-01-23T08:53:30.979Z,972.08
2019-01-23T08:54:30.961Z,972.05
2019-01-23T08:55:30.950Z,972.04
2019-01-23T08:56:30.936Z,972.04
2019-01-23T08:57:30.923Z,972.02
2019-01-23T08:58:30.928Z,971.97
2019-01-23T08:59:30.908Z,971.96
2019-01-23T09:00:30.906Z,971.91
2019-01-23T09:01:30.882Z,971.96
2019-01-23T09:02:30.867Z,971.94
2019-01-23T09:03:30.848Z,971.95
2019-01-23T09:04:30.831Z,971.94
2019-01-23T09:05:30.820Z,971.93
2019-01-23T09:06:30.815Z,971.92
2019-01-23T09:07:30.808Z,971.91
2019-01-23T09:08:37.444Z,971.91
2019-01-23T09:09:30.796Z,971.91
2019-01-23T09:10:30.778Z,971.91
2019-01-23T09:11:30.753Z,971.88
2019-01-23T09:12:30.739Z,971.91
2019-01-23T09:13:30.741Z,971.91
2019-01-23T09:14:30.744Z,971.89
2019-01-23T09:15:30.706Z,971.94
2019-01-23T09:16:30.683Z,971.91
2019-01-23T09:17:30.676Z,971.93
2019-01-23T09:18:30.662Z,971.93
2019-01-23T09:19:30.673Z,971.91
2019-01-23T09:20:30.648Z,971.94
2019-01-23T09:21:30.633Z,971.93
2019-01-23T09:22:30.616Z,971.9
2019-01-23T09:23:30.609Z,971.88
2019-01-23T09:24:30.582Z,971.91
2019-01-23T09:25:30.581Z,971.89
2019-01-23T09:26:30.552Z,971.92
2019-01-23T09:27:30.531Z,971.96
2019-01-23T09:28:30.530Z,971.93
2019-01-23T09:29:30.507Z,971.93
2019-01-23T09:30:30.493Z,971.95
2019-01-23T09:31:30.488Z,971.96
2019-01-23T09:32:30.468Z,971.97
2019-01-23T09:33:30.460Z,971.9
2019-01-23T09:34:30.445Z,971.94
2019-01-23T09:35:30.429Z,971.94
2019-01-23T09:36:30.416Z,971.97
2019-01-23T09:37:30.580Z,971.98
2019-01-23T09:38:30.390Z,971.99
2019-01-23T09:39:30.382Z,971.95
2019-01-23T09:40:30.367Z,971.94
2019-01-23T09:41:30.352Z,971.92
2019-01-23T09:42:30.339Z,971.94
2019-01-23T09:43:30.327Z,971.9
2019-01-23T09:44:30.315Z,971.92
2019-01-23T09:45:30.305Z,971.89
2019-01-23T09:46:30.290Z,971.92
2019-01-23T09:47:30.279Z,971.9
2019-01-23T09:48:30.271Z,971.9
2019-01-23T09:49:30.250Z,971.89
2019-01-23T09:50:30.238Z,971.9
2019-01-23T09:51:30.225Z,971.91
2019-01-23T09:52:30.229Z,971.9
2019-01-23T09:53:30.200Z,971.86
2019-01-23T09:54:30.192Z,971.86
2019-01-23T09:55:30.181Z,971.86
2019-01-23T09:56:30.166Z,971.88
2019-01-23T09:57:30.149Z,971.84
2019-01-23T09:58:30.136Z,971.83
2019-01-23T09:59:30.130Z,971.82
2019-01-23T10:00:31.680Z,971.87
2019-01-23T10:01:30.104Z,971.84
2019-01-23T10:02:30.096Z,971.8
2019-01-23T10:03:30.077Z,971.77
2019-01-23T10:04:30.064Z,971.78
2019-01-23T10:05:30.057Z,971.79
2019-01-23T10:06:30.045Z,971.77
2019-01-23T10:07:30.026Z,971.74
2019-01-23T10:08:30.014Z,971.7
2019-01-23T10:09:30.008Z,971.78
2019-01-23T10:10:29.993Z,971.79
2019-01-23T10:11:29.981Z,971.74
2019-01-23T10:12:29.967Z,971.77
2019-01-23T10:13:29.959Z,971.79
2019-01-23T10:14:29.963Z,971.79
2019-01-23T10:15:29.937Z,971.77
2019-01-23T10:16:29.931Z,971.75
2019-01-23T10:17:29.923Z,971.72
2019-01-23T10:18:29.914Z,971.69
2019-01-23T10:19:29.899Z,971.68
2019-01-23T10:20:29.887Z,971.66
2019-01-23T10:21:29.870Z,971.66
2019-01-23T10:22:29.861Z,971.7
2019-01-23T10:23:29.844Z,971.69
2019-01-23T10:24:35.675Z,971.69
2019-01-23T10:25:29.810Z,971.67
2019-01-23T10:26:29.797Z,971.68
2019-01-23T10:27:29.784Z,971.69
2019-01-23T10:28:29.772Z,971.7
2019-01-23T10:29:29.777Z,971.66
2019-01-23T10:30:29.747Z,971.66
2019-01-23T10:31:29.740Z,971.69
2019-01-23T10:32:29.738Z,971.66
2019-01-23T10:33:29.710Z,971.64
2019-01-23T10:34:29.703Z,971.66
2019-01-23T10:35:29.688Z,971.62
2019-01-23T10:36:29.676Z,971.59
2019-01-23T10:37:29.663Z,971.6
2019-01-23T10:38:29.650Z,971.62
2019-01-23T10:39:29.640Z,971.58
2019-01-23T10:40:29.627Z,971.59
2019-01-23T10:41:29.617Z,971.63
2019-01-23T10:42:29.605Z,971.57
2019-01-23T10:43:29.602Z,971.56
2019-01-23T10:44:29.581Z,971.58
2019-01-23T10:45:29.569Z,971.56
2019-01-23T10:46:29.556Z,971.56
2019-01-23T10:47:29.543Z,971.52
2019-01-23T10:48:29.531Z,971.57
2019-01-23T10:49:29.522Z,971.51
2019-01-23T10:50:29.509Z,971.51
2019-01-23T10:51:29.496Z,971.51
2019-01-23T10:52:29.484Z,971.51
2019-01-23T10:53:29.472Z,971.49
2019-01-23T10:54:29.461Z,971.52
2019-01-23T10:55:29.449Z,971.54
2019-01-23T10:56:29.443Z,971.52
2019-01-23T10:57:29.444Z,971.54
2019-01-23T10:58:29.422Z,971.5
2019-01-23T10:59:29.405Z,971.51
2019-01-23T11:00:29.390Z,971.52
2019-01-23T11:01:29.394Z,971.53
2019-01-23T11:02:29.374Z,971.49
2019-01-23T11:03:29.369Z,971.5
2019-01-23T11:04:29.359Z,971.48
2019-01-23T11:05:29.337Z,971.5
2019-01-23T11:06:29.323Z,971.51
2019-01-23T11:07:29.310Z,971.45
2019-01-23T11:08:29.305Z,971.48
2019-01-23T11:09:29.333Z,971.45
2019-01-23T11:10:29.279Z,971.44
2019-01-23T11:11:29.267Z,971.49
2019-01-23T11:12:29.256Z,971.43
2019-01-23T11:13:29.243Z,971.42
2019-01-23T11:14:29.235Z,971.45
2019-01-23T11:15:29.226Z,971.43
2019-01-23T11:16:29.215Z,971.44
2019-01-23T11:17:29.200Z,971.4
2019-01-23T11:18:29.193Z,971.42
2019-01-23T11:19:29.178Z,971.4
2019-01-23T11:20:29.173Z,971.39
2019-01-23T11:21:29.163Z,971.34
2019-01-23T11:22:29.148Z,971.35
2019-01-23T11:23:29.141Z,971.37
2019-01-23T11:24:29.127Z,971.39
2019-01-23T11:25:29.119Z,971.38
2019-01-23T11:26:29.108Z,971.37
2019-01-23T11:27:29.098Z,971.35
2019-01-23T11:28:29.087Z,971.37
2019-01-23T11:29:29.075Z,971.37
2019-01-23T11:30:29.067Z,971.32
2019-01-23T11:31:29.060Z,971.31
2019-01-23T11:32:29.047Z,971.3
2019-01-23T11:33:29.038Z,971.26
2019-01-23T11:34:29.029Z,971.27
2019-01-23T11:35:29.031Z,971.26
2019-01-23T11:36:29.006Z,971.3
2019-01-23T11:37:28.999Z,971.29
2019-01-23T11:38:28.989Z,971.28
2019-01-23T11:39:28.979Z,971.26
2019-01-23T11:40:28.974Z,971.29
2019-01-23T11:41:28.959Z,971.29
2019-01-23T11:42:28.948Z,971.25
2019-01-23T11:43:28.942Z,971.24
2019-01-23T11:44:28.936Z,971.24
2019-01-23T11:45:28.921Z,971.27
2019-01-23T11:46:28.913Z,971.21
2019-01-23T11:47:28.905Z,971.15
2019-01-23T11:48:28.899Z,971.16
2019-01-23T11:49:28.881Z,971.19
2019-01-23T11:50:28.873Z,971.18
2019-01-23T11:51:29.180Z,971.18
2019-01-23T11:52:28.854Z,971.21
2019-01-23T11:53:28.843Z,971.2
2019-01-23T11:54:28.844Z,971.17
2019-01-23T11:55:28.824Z,971.16
2019-01-23T11:56:28.812Z,971.15
2019-01-23T11:57:28.805Z,971.15
2019-01-23T11:58:28.802Z,971.13
2019-01-23T11:59:28.784Z,971.16
2019-01-23T12:00:28.775Z,971.13
2019-01-23T12:01:28.763Z,971.17
2019-01-23T12:02:30.815Z,971.16
2019-01-23T12:03:28.758Z,971.14
2019-01-23T12:04:28.741Z,971.11
2019-01-23T12:05:28.727Z,971.14
2019-01-23T12:06:28.716Z,971.11
2019-01-23T12:07:28.718Z,971.1
2019-01-23T12:08:28.697Z,971.08
2019-01-23T12:09:28.687Z,971.07
2019-01-23T12:10:28.678Z,971.08
2019-01-23T12:11:28.667Z,971.07
2019-01-23T12:12:28.655Z,971.04
2019-01-23T12:13:28.652Z,971.06
2019-01-23T12:14:28.634Z,971.07
2019-01-23T12:15:28.626Z,971.06
2019-01-23T12:16:28.616Z,971.07
2019-01-23T12:17:28.605Z,971.03
2019-01-23T12:18:28.596Z,971.09
2019-01-23T12:19:28.585Z,971.07
2019-01-23T12:20:28.578Z,971.02
2019-01-23T12:21:28.565Z,971.02
2019-01-23T12:22:28.552Z,971.01
2019-01-23T12:23:28.540Z,971.05
2019-01-23T12:24:28.542Z,971.06
2019-01-23T12:25:28.520Z,970.98
2019-01-23T12:26:28.510Z,971.03
2019-01-23T12:27:28.498Z,971.01
2019-01-23T12:28:28.489Z,971.01
2019-01-23T12:29:28.477Z,970.99
2019-01-23T12:30:28.466Z,970.98